sensor_id;sensor_type;location;lat;lon;timestamp;temperature;humidity
47490;DHT22;33226;56.996;14.584;2022-09-01T00:02:23;5.90;99.90
47490;DHT22;33226;56.996;14.584;2022-09-01T00:04:52;5.80;99.90
47490;DHT22;33226;56.996;14.584;2022-09-01T00:07:24;5.80;99.90
47490;DHT22;33226;56.996;14.584;2022-09-01T00:09:49;5.80;99.90
47490;DHT22;33226;56.996;14.584;2022-09-01T00:12:16;5.70;99.90
47490;DHT22;33226;56.996;14.584;2022-09-01T00:14:42;5.70;99.90
47490;DHT22;33226;56.996;14.584;2022-09-01T00:17:09;5.60;99.90
47490;DHT22;33226;56.996;14.584;2022-09-01T00:19:36;5.60;99.90
47490;DHT22;33226;56.996;14.584;2022-09-01T00:22:03;5.60;99.90
47490;DHT22;33226;56.996;14.584;2022-09-01T00:24:29;5.50;99.90
47490;DHT22;33226;56.996;14.584;2022-09-01T00:26:55;5.50;99.90
47490;DHT22;33226;56.996;14.584;2022-09-01T00:29:22;5.40;99.90
47490;DHT22;33226;56.996;14.584;2022-09-01T00:31:48;5.40;99.90
47490;DHT22;33226;56.996;14.584;2022-09-01T00:34:14;5.30;99.90
47490;DHT22;33226;56.996;14.584;2022-09-01T00:36:39;5.30;99.90
47490;DHT22;33226;56.996;14.584;2022-09-01T00:39:06;5.30;99.90
47490;DHT22;33226;56.996;14.584;2022-09-01T00:41:33;5.20;99.90
47490;DHT22;33226;56.996;14.584;2022-09-01T00:44:02;5.20;99.90
47490;DHT22;33226;56.996;14.584;2022-09-01T00:46:35;5.10;99.90
47490;DHT22;33226;56.996;14.584;2022-09-01T00:49:05;5.10;99.90
47490;DHT22;33226;56.996;14.584;2022-09-01T00:51:34;5.10;99.90
47490;DHT22;33226;56.996;14.584;2022-09-01T00:54:04;5.00;99.90
47490;DHT22;33226;56.996;14.584;2022-09-01T00:56:31;5.00;99.90
47490;DHT22;33226;56.996;14.584;2022-09-01T00:58:59;5.00;99.90
47490;DHT22;33226;56.996;14.584;2022-09-01T01:01:26;4.90;99.90
47490;DHT22;33226;56.996;14.584;2022-09-01T01:03:51;4.90;99.90
47490;DHT22;33226;56.996;14.584;2022-09-01T01:06:17;4.90;99.90
47490;DHT22;33226;56.996;14.584;2022-09-01T01:08:48;4.90;99.90
47490;DHT22;33226;56.996;14.584;2022-09-01T01:11:21;4.80;99.90
47490;DHT22;33226;56.996;14.584;2022-09-01T01:16:17;4.80;99.90
47490;DHT22;33226;56.996;14.584;2022-09-01T01:18:43;4.70;99.90
47490;DHT22;33226;56.996;14.584;2022-09-01T01:21:14;4.70;99.90
47490;DHT22;33226;56.996;14.584;2022-09-01T01:26:43;4.70;99.90
47490;DHT22;33226;56.996;14.584;2022-09-01T01:29:09;4.60;99.90
47490;DHT22;33226;56.996;14.584;2022-09-01T01:31:36;4.60;99.90
47490;DHT22;33226;56.996;14.584;2022-09-01T01:34:03;4.60;99.90
47490;DHT22;33226;56.996;14.584;2022-09-01T01:36:34;4.60;99.90
47490;DHT22;33226;56.996;14.584;2022-09-01T01:39:11;4.60;99.90
47490;DHT22;33226;56.996;14.584;2022-09-01T01:41:38;4.50;99.90
47490;DHT22;33226;56.996;14.584;2022-09-01T01:44:11;4.50;99.90
47490;DHT22;33226;56.996;14.584;2022-09-01T01:46:42;4.50;99.90
47490;DHT22;33226;56.996;14.584;2022-09-01T01:49:10;4.50;99.90
47490;DHT22;33226;56.996;14.584;2022-09-01T01:51:38;4.40;99.90
47490;DHT22;33226;56.996;14.584;2022-09-01T01:54:04;4.40;99.90
47490;DHT22;33226;56.996;14.584;2022-09-01T01:56:33;4.40;99.90
47490;DHT22;33226;56.996;14.584;2022-09-01T01:59:02;4.40;99.90
47490;DHT22;33226;56.996;14.584;2022-09-01T02:01:29;4.40;99.90
47490;DHT22;33226;56.996;14.584;2022-09-01T02:03:58;4.30;99.90
47490;DHT22;33226;56.996;14.584;2022-09-01T02:06:26;4.30;99.90
47490;DHT22;33226;56.996;14.584;2022-09-01T02:08:53;4.40;99.90
47490;DHT22;33226;56.996;14.584;2022-09-01T02:11:23;4.40;99.90
47490;DHT22;33226;56.996;14.584;2022-09-01T02:13:51;4.30;99.90
47490;DHT22;33226;56.996;14.584;2022-09-01T02:16:22;4.40;99.90
47490;DHT22;33226;56.996;14.584;2022-09-01T02:18:48;4.30;99.90
47490;DHT22;33226;56.996;14.584;2022-09-01T02:21:17;4.30;99.90
47490;DHT22;33226;56.996;14.584;2022-09-01T02:23:57;4.30;99.90
47490;DHT22;33226;56.996;14.584;2022-09-01T02:26:38;4.30;99.90
47490;DHT22;33226;56.996;14.584;2022-09-01T02:29:08;4.30;99.90
47490;DHT22;33226;56.996;14.584;2022-09-01T02:31:35;4.20;99.90
47490;DHT22;33226;56.996;14.584;2022-09-01T02:34:04;4.20;99.90
47490;DHT22;33226;56.996;14.584;2022-09-01T02:36:29;4.20;99.90
47490;DHT22;33226;56.996;14.584;2022-09-01T02:38:59;4.10;99.90
47490;DHT22;33226;56.996;14.584;2022-09-01T02:41:25;4.10;99.90
47490;DHT22;33226;56.996;14.584;2022-09-01T02:43:53;4.10;99.90
47490;DHT22;33226;56.996;14.584;2022-09-01T02:46:19;4.10;99.90
47490;DHT22;33226;56.996;14.584;2022-09-01T02:48:48;4.00;99.90
47490;DHT22;33226;56.996;14.584;2022-09-01T02:51:17;4.00;99.90
47490;DHT22;33226;56.996;14.584;2022-09-01T02:53:45;4.00;99.90
47490;DHT22;33226;56.996;14.584;2022-09-01T02:56:16;4.00;99.90
47490;DHT22;33226;56.996;14.584;2022-09-01T02:58:43;4.00;99.90
47490;DHT22;33226;56.996;14.584;2022-09-01T03:03:51;4.00;99.90
47490;DHT22;33226;56.996;14.584;2022-09-01T03:06:18;3.90;99.90
47490;DHT22;33226;56.996;14.584;2022-09-01T03:08:52;3.90;99.90
47490;DHT22;33226;56.996;14.584;2022-09-01T03:11:18;3.90;99.90
47490;DHT22;33226;56.996;14.584;2022-09-01T03:13:44;3.80;99.90
47490;DHT22;33226;56.996;14.584;2022-09-01T03:16:10;3.80;99.90
47490;DHT22;33226;56.996;14.584;2022-09-01T03:18:37;3.80;99.90
47490;DHT22;33226;56.996;14.584;2022-09-01T03:21:04;3.80;99.90
47490;DHT22;33226;56.996;14.584;2022-09-01T03:23:31;3.70;99.90
47490;DHT22;33226;56.996;14.584;2022-09-01T03:25:59;3.70;99.90
47490;DHT22;33226;56.996;14.584;2022-09-01T03:28:26;3.70;99.90
47490;DHT22;33226;56.996;14.584;2022-09-01T03:30:53;3.70;99.90
47490;DHT22;33226;56.996;14.584;2022-09-01T03:33:21;3.60;99.90
47490;DHT22;33226;56.996;14.584;2022-09-01T03:35:47;3.60;99.90
47490;DHT22;33226;56.996;14.584;2022-09-01T03:38:14;3.60;99.90
47490;DHT22;33226;56.996;14.584;2022-09-01T03:40:51;3.60;99.90
47490;DHT22;33226;56.996;14.584;2022-09-01T03:43:18;3.60;99.90
47490;DHT22;33226;56.996;14.584;2022-09-01T03:45:44;3.70;99.90
47490;DHT22;33226;56.996;14.584;2022-09-01T03:48:11;3.70;99.90
47490;DHT22;33226;56.996;14.584;2022-09-01T03:50:43;3.70;99.90
47490;DHT22;33226;56.996;14.584;2022-09-01T03:53:14;3.70;99.90
47490;DHT22;33226;56.996;14.584;2022-09-01T03:55:40;3.80;99.90
47490;DHT22;33226;56.996;14.584;2022-09-01T03:58:10;3.80;99.90
47490;DHT22;33226;56.996;14.584;2022-09-01T04:00:44;3.90;99.90
47490;DHT22;33226;56.996;14.584;2022-09-01T04:03:11;3.90;99.90
47490;DHT22;33226;56.996;14.584;2022-09-01T04:05:40;4.00;99.90
47490;DHT22;33226;56.996;14.584;2022-09-01T04:08:07;4.10;99.90
47490;DHT22;33226;56.996;14.584;2022-09-01T04:10:41;4.20;99.90
47490;DHT22;33226;56.996;14.584;2022-09-01T04:13:08;4.20;99.90
47490;DHT22;33226;56.996;14.584;2022-09-01T04:15:36;4.30;99.90
47490;DHT22;33226;56.996;14.584;2022-09-01T04:18:02;4.30;99.90
47490;DHT22;33226;56.996;14.584;2022-09-01T04:20:39;4.30;99.90
47490;DHT22;33226;56.996;14.584;2022-09-01T04:23:18;4.40;99.90
47490;DHT22;33226;56.996;14.584;2022-09-01T04:25:59;4.30;99.90
47490;DHT22;33226;56.996;14.584;2022-09-01T04:28:34;4.30;99.90
47490;DHT22;33226;56.996;14.584;2022-09-01T04:31:03;4.30;99.90
47490;DHT22;33226;56.996;14.584;2022-09-01T04:33:31;4.30;99.90
47490;DHT22;33226;56.996;14.584;2022-09-01T04:36:05;4.20;99.90
47490;DHT22;33226;56.996;14.584;2022-09-01T04:38:32;4.20;99.90
47490;DHT22;33226;56.996;14.584;2022-09-01T04:41:06;4.20;99.90
47490;DHT22;33226;56.996;14.584;2022-09-01T04:43:33;4.20;99.90
47490;DHT22;33226;56.996;14.584;2022-09-01T04:45:59;4.20;99.90
47490;DHT22;33226;56.996;14.584;2022-09-01T04:48:24;4.20;99.90
47490;DHT22;33226;56.996;14.584;2022-09-01T04:50:51;4.20;99.90
47490;DHT22;33226;56.996;14.584;2022-09-01T04:53:18;4.10;99.90
47490;DHT22;33226;56.996;14.584;2022-09-01T04:55:45;4.10;99.90
47490;DHT22;33226;56.996;14.584;2022-09-01T04:58:14;4.20;99.90
47490;DHT22;33226;56.996;14.584;2022-09-01T05:00:43;4.20;99.90
47490;DHT22;33226;56.996;14.584;2022-09-01T05:03:10;4.20;99.90
47490;DHT22;33226;56.996;14.584;2022-09-01T05:05:39;4.20;99.90
47490;DHT22;33226;56.996;14.584;2022-09-01T05:08:12;4.20;99.90
47490;DHT22;33226;56.996;14.584;2022-09-01T05:10:44;4.20;99.90
47490;DHT22;33226;56.996;14.584;2022-09-01T05:13:14;4.20;99.90
47490;DHT22;33226;56.996;14.584;2022-09-01T05:15:43;4.30;99.90
47490;DHT22;33226;56.996;14.584;2022-09-01T05:18:18;4.30;99.90
47490;DHT22;33226;56.996;14.584;2022-09-01T05:20:50;4.40;99.90
47490;DHT22;33226;56.996;14.584;2022-09-01T05:23:17;4.50;99.90
47490;DHT22;33226;56.996;14.584;2022-09-01T05:25:48;4.60;99.90
47490;DHT22;33226;56.996;14.584;2022-09-01T05:28:15;4.70;99.90
47490;DHT22;33226;56.996;14.584;2022-09-01T05:30:44;4.70;99.90
47490;DHT22;33226;56.996;14.584;2022-09-01T05:33:11;4.80;99.90
47490;DHT22;33226;56.996;14.584;2022-09-01T05:35:42;4.90;99.90
47490;DHT22;33226;56.996;14.584;2022-09-01T05:38:10;5.00;99.90
47490;DHT22;33226;56.996;14.584;2022-09-01T05:40:41;5.10;99.90
47490;DHT22;33226;56.996;14.584;2022-09-01T05:43:09;5.20;99.90
47490;DHT22;33226;56.996;14.584;2022-09-01T05:45:37;5.40;99.90
47490;DHT22;33226;56.996;14.584;2022-09-01T05:48:05;5.60;99.90
47490;DHT22;33226;56.996;14.584;2022-09-01T05:50:30;6.00;99.90
47490;DHT22;33226;56.996;14.584;2022-09-01T05:52:56;6.20;99.90
47490;DHT22;33226;56.996;14.584;2022-09-01T05:55:21;6.50;99.90
47490;DHT22;33226;56.996;14.584;2022-09-01T05:57:47;6.90;99.90
47490;DHT22;33226;56.996;14.584;2022-09-01T06:00:13;7.30;99.90
47490;DHT22;33226;56.996;14.584;2022-09-01T06:02:40;7.90;99.90
47490;DHT22;33226;56.996;14.584;2022-09-01T06:05:07;8.40;99.90
47490;DHT22;33226;56.996;14.584;2022-09-01T06:07:33;8.90;99.90
47490;DHT22;33226;56.996;14.584;2022-09-01T06:10:03;9.40;99.90
47490;DHT22;33226;56.996;14.584;2022-09-01T06:12:29;9.90;99.90
47490;DHT22;33226;56.996;14.584;2022-09-01T06:14:55;10.40;99.90
47490;DHT22;33226;56.996;14.584;2022-09-01T06:17:23;11.00;99.90
47490;DHT22;33226;56.996;14.584;2022-09-01T06:19:51;11.50;99.90
47490;DHT22;33226;56.996;14.584;2022-09-01T06:22:24;12.10;99.90
47490;DHT22;33226;56.996;14.584;2022-09-01T06:24:51;12.60;99.90
47490;DHT22;33226;56.996;14.584;2022-09-01T06:27:19;13.10;99.90
47490;DHT22;33226;56.996;14.584;2022-09-01T06:29:46;13.70;99.90
47490;DHT22;33226;56.996;14.584;2022-09-01T06:32:16;14.30;99.90
47490;DHT22;33226;56.996;14.584;2022-09-01T06:34:42;15.00;99.90
47490;DHT22;33226;56.996;14.584;2022-09-01T06:37:12;15.40;99.90
47490;DHT22;33226;56.996;14.584;2022-09-01T06:39:37;15.90;99.90
47490;DHT22;33226;56.996;14.584;2022-09-01T06:42:04;16.20;99.90
47490;DHT22;33226;56.996;14.584;2022-09-01T06:44:29;16.50;99.90
47490;DHT22;33226;56.996;14.584;2022-09-01T06:46:57;16.80;99.90
47490;DHT22;33226;56.996;14.584;2022-09-01T06:49:24;16.90;99.90
47490;DHT22;33226;56.996;14.584;2022-09-01T06:51:57;16.90;99.90
47490;DHT22;33226;56.996;14.584;2022-09-01T06:54:24;16.70;99.90
47490;DHT22;33226;56.996;14.584;2022-09-01T06:56:50;16.50;99.90
47490;DHT22;33226;56.996;14.584;2022-09-01T06:59:17;16.20;99.90
47490;DHT22;33226;56.996;14.584;2022-09-01T07:01:43;15.90;99.90
47490;DHT22;33226;56.996;14.584;2022-09-01T07:04:10;15.90;99.90
47490;DHT22;33226;56.996;14.584;2022-09-01T07:06:39;16.00;99.90
47490;DHT22;33226;56.996;14.584;2022-09-01T07:09:05;16.00;99.90
47490;DHT22;33226;56.996;14.584;2022-09-01T07:11:33;16.30;99.90
47490;DHT22;33226;56.996;14.584;2022-09-01T07:14:03;16.60;99.90
47490;DHT22;33226;56.996;14.584;2022-09-01T07:16:32;16.90;99.90
47490;DHT22;33226;56.996;14.584;2022-09-01T07:19:03;17.20;99.90
47490;DHT22;33226;56.996;14.584;2022-09-01T07:21:31;17.70;99.90
47490;DHT22;33226;56.996;14.584;2022-09-01T07:23:57;17.80;99.90
47490;DHT22;33226;56.996;14.584;2022-09-01T07:26:26;18.00;99.90
47490;DHT22;33226;56.996;14.584;2022-09-01T07:28:53;18.20;99.90
47490;DHT22;33226;56.996;14.584;2022-09-01T07:31:31;18.40;99.90
47490;DHT22;33226;56.996;14.584;2022-09-01T07:34:00;18.40;99.90
47490;DHT22;33226;56.996;14.584;2022-09-01T07:36:26;18.20;99.90
47490;DHT22;33226;56.996;14.584;2022-09-01T07:38:52;18.50;99.90
47490;DHT22;33226;56.996;14.584;2022-09-01T07:41:23;18.70;99.90
47490;DHT22;33226;56.996;14.584;2022-09-01T07:43:50;19.00;99.90
47490;DHT22;33226;56.996;14.584;2022-09-01T07:46:24;19.20;99.90
47490;DHT22;33226;56.996;14.584;2022-09-01T07:48:52;19.30;99.90
47490;DHT22;33226;56.996;14.584;2022-09-01T07:51:20;19.40;99.90
47490;DHT22;33226;56.996;14.584;2022-09-01T07:53:47;19.50;99.90
47490;DHT22;33226;56.996;14.584;2022-09-01T07:56:16;19.60;99.90
47490;DHT22;33226;56.996;14.584;2022-09-01T07:58:44;19.50;99.90
47490;DHT22;33226;56.996;14.584;2022-09-01T08:01:15;19.80;99.90
47490;DHT22;33226;56.996;14.584;2022-09-01T08:03:51;20.10;99.90
47490;DHT22;33226;56.996;14.584;2022-09-01T08:06:19;20.30;99.00
47490;DHT22;33226;56.996;14.584;2022-09-01T08:08:47;20.50;98.70
47490;DHT22;33226;56.996;14.584;2022-09-01T08:11:24;20.70;97.10
47490;DHT22;33226;56.996;14.584;2022-09-01T08:13:52;20.70;97.30
47490;DHT22;33226;56.996;14.584;2022-09-01T08:16:18;21.10;97.90
47490;DHT22;33226;56.996;14.584;2022-09-01T08:18:45;21.30;95.10
47490;DHT22;33226;56.996;14.584;2022-09-01T08:21:12;21.40;93.50
47490;DHT22;33226;56.996;14.584;2022-09-01T08:23:39;21.40;92.00
47490;DHT22;33226;56.996;14.584;2022-09-01T08:26:06;21.50;91.40
47490;DHT22;33226;56.996;14.584;2022-09-01T08:28:32;21.50;90.50
47490;DHT22;33226;56.996;14.584;2022-09-01T08:30:58;21.40;89.50
47490;DHT22;33226;56.996;14.584;2022-09-01T08:33:25;21.60;91.80
47490;DHT22;33226;56.996;14.584;2022-09-01T08:35:51;21.70;89.50
47490;DHT22;33226;56.996;14.584;2022-09-01T08:38:17;21.90;89.70
47490;DHT22;33226;56.996;14.584;2022-09-01T08:40:49;22.10;88.50
47490;DHT22;33226;56.996;14.584;2022-09-01T08:43:25;22.40;89.10
47490;DHT22;33226;56.996;14.584;2022-09-01T08:45:57;22.60;83.30
47490;DHT22;33226;56.996;14.584;2022-09-01T08:48:36;22.80;83.10
47490;DHT22;33226;56.996;14.584;2022-09-01T08:51:14;22.80;82.30
47490;DHT22;33226;56.996;14.584;2022-09-01T08:54:09;22.50;81.00
47490;DHT22;33226;56.996;14.584;2022-09-01T08:59:42;21.80;85.80
47490;DHT22;33226;56.996;14.584;2022-09-01T09:02:20;21.60;80.20
47490;DHT22;33226;56.996;14.584;2022-09-01T09:10:23;21.60;84.50
47490;DHT22;33226;56.996;14.584;2022-09-01T09:15:46;20.90;85.30
47490;DHT22;33226;56.996;14.584;2022-09-01T09:18:28;20.80;89.80
47490;DHT22;33226;56.996;14.584;2022-09-01T09:21:01;21.00;87.00
47490;DHT22;33226;56.996;14.584;2022-09-01T09:23:37;21.30;88.60
47490;DHT22;33226;56.996;14.584;2022-09-01T09:26:04;21.60;85.20
47490;DHT22;33226;56.996;14.584;2022-09-01T09:28:29;21.60;82.70
47490;DHT22;33226;56.996;14.584;2022-09-01T09:33:59;21.90;86.70
47490;DHT22;33226;56.996;14.584;2022-09-01T09:36:33;22.10;85.90
47490;DHT22;33226;56.996;14.584;2022-09-01T09:39:13;22.30;84.20
47490;DHT22;33226;56.996;14.584;2022-09-01T09:41:42;22.40;83.10
47490;DHT22;33226;56.996;14.584;2022-09-01T09:44:29;22.30;84.60
47490;DHT22;33226;56.996;14.584;2022-09-01T09:46:56;22.10;82.20
47490;DHT22;33226;56.996;14.584;2022-09-01T09:49:25;21.70;82.90
47490;DHT22;33226;56.996;14.584;2022-09-01T09:51:55;21.20;83.70
47490;DHT22;33226;56.996;14.584;2022-09-01T09:54:29;20.90;86.20
47490;DHT22;33226;56.996;14.584;2022-09-01T10:04:57;20.00;87.60
47490;DHT22;33226;56.996;14.584;2022-09-01T10:07:31;19.80;88.00
47490;DHT22;33226;56.996;14.584;2022-09-01T10:10:03;19.70;90.00
47490;DHT22;33226;56.996;14.584;2022-09-01T10:12:31;19.50;90.80
47490;DHT22;33226;56.996;14.584;2022-09-01T10:15:02;19.40;91.00
47490;DHT22;33226;56.996;14.584;2022-09-01T10:17:39;19.20;92.50
47490;DHT22;33226;56.996;14.584;2022-09-01T10:20:14;19.00;92.40
47490;DHT22;33226;56.996;14.584;2022-09-01T10:22:43;19.00;92.30
47490;DHT22;33226;56.996;14.584;2022-09-01T10:25:15;19.30;92.80
47490;DHT22;33226;56.996;14.584;2022-09-01T10:27:44;19.50;91.80
47490;DHT22;33226;56.996;14.584;2022-09-01T10:30:18;19.90;89.60
47490;DHT22;33226;56.996;14.584;2022-09-01T10:32:51;20.20;86.70
47490;DHT22;33226;56.996;14.584;2022-09-01T10:35:25;20.50;90.10
47490;DHT22;33226;56.996;14.584;2022-09-01T10:37:53;20.80;90.30
47490;DHT22;33226;56.996;14.584;2022-09-01T10:42:56;21.10;80.80
47490;DHT22;33226;56.996;14.584;2022-09-01T10:45:32;21.10;80.20
47490;DHT22;33226;56.996;14.584;2022-09-01T10:50:49;21.50;82.80
47490;DHT22;33226;56.996;14.584;2022-09-01T10:56:14;21.80;80.40
47490;DHT22;33226;56.996;14.584;2022-09-01T11:04:06;22.00;82.50
47490;DHT22;33226;56.996;14.584;2022-09-01T11:11:53;21.10;83.00
47490;DHT22;33226;56.996;14.584;2022-09-01T11:14:24;20.60;84.40
47490;DHT22;33226;56.996;14.584;2022-09-01T11:17:15;20.10;85.60
47490;DHT22;33226;56.996;14.584;2022-09-01T11:31:31;19.90;90.00
47490;DHT22;33226;56.996;14.584;2022-09-01T11:41:53;20.50;76.50
47490;DHT22;33226;56.996;14.584;2022-09-01T11:47:15;20.60;80.40
47490;DHT22;33226;56.996;14.584;2022-09-01T11:49:52;20.70;84.80
47490;DHT22;33226;56.996;14.584;2022-09-01T11:52:20;20.70;81.70
47490;DHT22;33226;56.996;14.584;2022-09-01T11:54:47;20.40;82.30
47490;DHT22;33226;56.996;14.584;2022-09-01T11:59:50;19.80;85.50
47490;DHT22;33226;56.996;14.584;2022-09-01T12:02:26;19.50;89.50
47490;DHT22;33226;56.996;14.584;2022-09-01T12:04:54;19.40;90.70
47490;DHT22;33226;56.996;14.584;2022-09-01T12:07:38;19.20;88.50
47490;DHT22;33226;56.996;14.584;2022-09-01T12:10:14;19.00;87.50
47490;DHT22;33226;56.996;14.584;2022-09-01T12:12:41;18.80;88.00
47490;DHT22;33226;56.996;14.584;2022-09-01T12:15:23;18.80;88.20
47490;DHT22;33226;56.996;14.584;2022-09-01T12:17:49;18.70;88.60
47490;DHT22;33226;56.996;14.584;2022-09-01T12:20:35;18.50;90.40
47490;DHT22;33226;56.996;14.584;2022-09-01T12:23:11;18.60;90.90
47490;DHT22;33226;56.996;14.584;2022-09-01T12:25:39;18.60;91.10
47490;DHT22;33226;56.996;14.584;2022-09-01T12:28:05;18.70;92.00
47490;DHT22;33226;56.996;14.584;2022-09-01T12:30:31;18.80;91.60
47490;DHT22;33226;56.996;14.584;2022-09-01T12:33:05;18.90;91.30
47490;DHT22;33226;56.996;14.584;2022-09-01T12:35:31;19.00;90.60
47490;DHT22;33226;56.996;14.584;2022-09-01T12:38:36;19.00;90.40
47490;DHT22;33226;56.996;14.584;2022-09-01T12:41:01;19.00;91.10
47490;DHT22;33226;56.996;14.584;2022-09-01T12:43:37;19.00;92.10
47490;DHT22;33226;56.996;14.584;2022-09-01T12:46:05;19.00;92.50
47490;DHT22;33226;56.996;14.584;2022-09-01T12:48:36;18.90;91.40
47490;DHT22;33226;56.996;14.584;2022-09-01T12:51:23;18.70;91.80
47490;DHT22;33226;56.996;14.584;2022-09-01T12:53:58;18.60;91.70
47490;DHT22;33226;56.996;14.584;2022-09-01T12:56:28;18.50;91.90
47490;DHT22;33226;56.996;14.584;2022-09-01T12:59:13;18.30;93.00
47490;DHT22;33226;56.996;14.584;2022-09-01T13:01:44;18.30;93.30
47490;DHT22;33226;56.996;14.584;2022-09-01T13:04:15;18.10;93.90
47490;DHT22;33226;56.996;14.584;2022-09-01T13:06:47;18.00;94.10
47490;DHT22;33226;56.996;14.584;2022-09-01T13:09:13;17.90;93.70
47490;DHT22;33226;56.996;14.584;2022-09-01T13:11:39;17.80;94.20
47490;DHT22;33226;56.996;14.584;2022-09-01T13:14:07;17.80;95.30
47490;DHT22;33226;56.996;14.584;2022-09-01T13:16:33;17.90;95.10
47490;DHT22;33226;56.996;14.584;2022-09-01T13:19:00;17.90;94.50
47490;DHT22;33226;56.996;14.584;2022-09-01T13:21:25;18.00;94.50
47490;DHT22;33226;56.996;14.584;2022-09-01T13:23:52;18.00;93.50
47490;DHT22;33226;56.996;14.584;2022-09-01T13:26:18;18.10;92.90
47490;DHT22;33226;56.996;14.584;2022-09-01T13:28:43;18.00;93.10
47490;DHT22;33226;56.996;14.584;2022-09-01T13:31:10;18.00;93.40
47490;DHT22;33226;56.996;14.584;2022-09-01T13:33:36;17.90;92.80
47490;DHT22;33226;56.996;14.584;2022-09-01T13:36:03;18.00;93.50
47490;DHT22;33226;56.996;14.584;2022-09-01T13:38:29;18.20;94.00
47490;DHT22;33226;56.996;14.584;2022-09-01T13:40:56;18.30;93.00
47490;DHT22;33226;56.996;14.584;2022-09-01T13:43:23;18.40;93.30
47490;DHT22;33226;56.996;14.584;2022-09-01T13:45:51;18.60;91.70
47490;DHT22;33226;56.996;14.584;2022-09-01T13:48:17;18.70;91.50
47490;DHT22;33226;56.996;14.584;2022-09-01T13:50:45;18.70;90.40
47490;DHT22;33226;56.996;14.584;2022-09-01T13:53:14;18.80;90.20
47490;DHT22;33226;56.996;14.584;2022-09-01T13:55:40;18.80;90.70
47490;DHT22;33226;56.996;14.584;2022-09-01T13:58:06;18.70;91.00
47490;DHT22;33226;56.996;14.584;2022-09-01T14:00:36;18.60;91.20
47490;DHT22;33226;56.996;14.584;2022-09-01T14:03:08;18.50;91.50
47490;DHT22;33226;56.996;14.584;2022-09-01T14:05:37;18.30;92.30
47490;DHT22;33226;56.996;14.584;2022-09-01T14:08:04;18.10;92.30
47490;DHT22;33226;56.996;14.584;2022-09-01T14:10:31;18.00;93.00
47490;DHT22;33226;56.996;14.584;2022-09-01T14:12:58;17.90;93.20
47490;DHT22;33226;56.996;14.584;2022-09-01T14:15:24;17.80;94.10
47490;DHT22;33226;56.996;14.584;2022-09-01T14:17:52;17.70;95.50
47490;DHT22;33226;56.996;14.584;2022-09-01T14:20:23;17.70;96.30
47490;DHT22;33226;56.996;14.584;2022-09-01T14:22:49;17.80;94.40
47490;DHT22;33226;56.996;14.584;2022-09-01T14:25:16;17.90;93.10
47490;DHT22;33226;56.996;14.584;2022-09-01T14:27:43;18.00;91.30
47490;DHT22;33226;56.996;14.584;2022-09-01T14:30:14;18.20;91.10
47490;DHT22;33226;56.996;14.584;2022-09-01T14:32:39;18.30;90.90
47490;DHT22;33226;56.996;14.584;2022-09-01T14:35:05;18.50;90.40
47490;DHT22;33226;56.996;14.584;2022-09-01T14:37:33;18.70;90.00
47490;DHT22;33226;56.996;14.584;2022-09-01T14:39:59;18.70;90.10
47490;DHT22;33226;56.996;14.584;2022-09-01T14:42:25;18.70;90.40
47490;DHT22;33226;56.996;14.584;2022-09-01T14:44:53;18.60;88.60
47490;DHT22;33226;56.996;14.584;2022-09-01T14:47:18;18.60;88.20
47490;DHT22;33226;56.996;14.584;2022-09-01T14:49:45;18.50;89.20
47490;DHT22;33226;56.996;14.584;2022-09-01T14:52:11;18.40;89.80
47490;DHT22;33226;56.996;14.584;2022-09-01T14:54:40;18.20;91.20
47490;DHT22;33226;56.996;14.584;2022-09-01T14:57:06;18.10;91.40
47490;DHT22;33226;56.996;14.584;2022-09-01T14:59:32;18.00;91.20
47490;DHT22;33226;56.996;14.584;2022-09-01T15:01:58;17.90;90.70
47490;DHT22;33226;56.996;14.584;2022-09-01T15:04:23;17.80;91.10
47490;DHT22;33226;56.996;14.584;2022-09-01T15:06:50;17.60;91.80
47490;DHT22;33226;56.996;14.584;2022-09-01T15:09:16;17.60;93.80
47490;DHT22;33226;56.996;14.584;2022-09-01T15:11:41;17.50;94.70
47490;DHT22;33226;56.996;14.584;2022-09-01T15:14:07;17.50;94.90
47490;DHT22;33226;56.996;14.584;2022-09-01T15:16:36;17.60;92.90
47490;DHT22;33226;56.996;14.584;2022-09-01T15:19:11;17.60;92.20
47490;DHT22;33226;56.996;14.584;2022-09-01T15:21:38;17.70;90.90
47490;DHT22;33226;56.996;14.584;2022-09-01T15:24:05;17.70;90.50
47490;DHT22;33226;56.996;14.584;2022-09-01T15:26:31;17.80;90.50
47490;DHT22;33226;56.996;14.584;2022-09-01T15:28:57;17.90;89.50
47490;DHT22;33226;56.996;14.584;2022-09-01T15:31:24;17.90;88.00
47490;DHT22;33226;56.996;14.584;2022-09-01T15:33:54;18.00;87.70
47490;DHT22;33226;56.996;14.584;2022-09-01T15:36:21;18.10;87.90
47490;DHT22;33226;56.996;14.584;2022-09-01T15:38:48;18.20;87.70
47490;DHT22;33226;56.996;14.584;2022-09-01T15:41:28;18.20;86.70
47490;DHT22;33226;56.996;14.584;2022-09-01T15:43:55;18.20;87.30
47490;DHT22;33226;56.996;14.584;2022-09-01T15:46:21;18.10;89.30
47490;DHT22;33226;56.996;14.584;2022-09-01T15:48:47;18.00;90.30
47490;DHT22;33226;56.996;14.584;2022-09-01T15:51:28;17.90;90.40
47490;DHT22;33226;56.996;14.584;2022-09-01T15:53:59;17.90;90.50
47490;DHT22;33226;56.996;14.584;2022-09-01T15:56:25;17.70;88.40
47490;DHT22;33226;56.996;14.584;2022-09-01T15:58:51;17.70;89.30
47490;DHT22;33226;56.996;14.584;2022-09-01T16:01:17;17.50;90.60
47490;DHT22;33226;56.996;14.584;2022-09-01T16:03:44;17.50;91.40
47490;DHT22;33226;56.996;14.584;2022-09-01T16:06:10;17.40;91.30
47490;DHT22;33226;56.996;14.584;2022-09-01T16:08:38;17.30;90.60
47490;DHT22;33226;56.996;14.584;2022-09-01T16:11:10;17.20;90.50
47490;DHT22;33226;56.996;14.584;2022-09-01T16:13:39;17.10;91.90
47490;DHT22;33226;56.996;14.584;2022-09-01T16:22:22;16.70;98.00
47490;DHT22;33226;56.996;14.584;2022-09-01T16:24:52;16.70;98.80
47490;DHT22;33226;56.996;14.584;2022-09-01T16:27:21;16.60;98.60
47490;DHT22;33226;56.996;14.584;2022-09-01T16:29:53;16.60;98.80
47490;DHT22;33226;56.996;14.584;2022-09-01T16:32:20;16.50;98.80
47490;DHT22;33226;56.996;14.584;2022-09-01T16:34:49;16.40;99.60
47490;DHT22;33226;56.996;14.584;2022-09-01T16:40:17;16.20;99.90
47490;DHT22;33226;56.996;14.584;2022-09-01T16:43:09;16.10;99.90
47490;DHT22;33226;56.996;14.584;2022-09-01T16:54:11;15.60;99.90
47490;DHT22;33226;56.996;14.584;2022-09-01T16:57:02;15.50;99.90
47490;DHT22;33226;56.996;14.584;2022-09-01T16:59:36;15.40;99.90
47490;DHT22;33226;56.996;14.584;2022-09-01T17:02:15;15.30;99.90
47490;DHT22;33226;56.996;14.584;2022-09-01T17:04:49;15.20;99.90
47490;DHT22;33226;56.996;14.584;2022-09-01T17:07:44;15.10;99.90
47490;DHT22;33226;56.996;14.584;2022-09-01T17:13:18;14.90;99.90